Airfield :
LOGIN :

Register | Disclaimer

   EN    FR    IT 

 










Legend :    VFR   Marginal VFR   IFR   Intensive IFR   Very Intensive IFR
Visi :
Ceiling :
>= 8 km
>= 3000ft
5 to 8 km
1000 to 3000 ft
1500m to 5 km
500 to 1000 ft
800 to 1500m
200 to 500 ft
< 800m
< 200 ft
Symbols :   Thunderstorms  Fog  Heavy snow  Heavy precipitations  Wind > 20 kt
SIGMETs :     Misc.  Thunderstorms  Icing  Turbulence  Mountain Waves  Volcanic Ashes






- Airport Elevation : 424 ft
- IATA code : QGY


LHPR - Györ Per

CURRENT METAR :
  • 191045Z AUTO 33010KT 280V360 9999 BKN031 17/10 Q1014 NOSIG

EXPIRED METARs :
  • 191015Z AUTO 33011KT 280V020 9999 BKN036 18/11 Q1014 NOSIG
  • 190945Z AUTO 33013KT 9999 BKN024 17/10 Q1014 NOSIG
  • 190915Z AUTO 31009KT 280V360 9999 BKN022 17/11 Q1015 NOSIG
  • 190845Z AUTO 32009KT 280V350 9999 SCT017 BKN030 17/12 Q1015 NOSIG
  • 190815Z AUTO 33009KT 280V360 9999 FEW015 BKN029 16/12 Q1014 NOSIG

TAF TAF LHPR
Valid from the 19 at 09:00 until the 19 at 18:00 UTC


190815Z 1909/1918 31011KT CAVOK
TEMPO 1909/1914 FEW020 BKN035
BECMG 1913/1916 02008KT



MET'MAP, your aeronautical weather chart ! - Copyright ORBIFLY December 2007 - Disclaimer

ORBIFLY MET'MAP TEAM :

Programming & Development : Alexandra Zaïnal
Concept & original design : Baudouin d'Aumeries
Assistance for programming : Marc-Olivier Méhu
Technical & hardware support : Manuel Goepfert

Contact : metmap@orbifly.com




SOURCES & CREDITS :

   NOAA